Time;durP1;ratioP1;P1;durP2;ratioP2;P2;SDS_P1;SDS_P2;PMS_P1;PMS_P2;Temp;Humidity;BMP_temperature;BMP_pressure;BME280_temperature;BME280_humidity;BME280_pressure;Samples;Min_cycle;Max_cycle;Signal;HPM_P1;HPM_P2
2023/01/27 00:00:50;;;;;;;;;;;;;;;10.40;46.21;101180.88;4955031;28;114365;-66
2023/01/27 00:03:17;;;;;;;;;;;;;;;10.39;46.86;101182.78;4954798;28;98098;-66
2023/01/27 00:05:43;;;;;;;;;;;;;;;10.39;46.46;101179.25;4952762;28;98300;-66
2023/01/27 00:08:09;;;;;;;;;;;;;;;10.40;46.43;101180.88;4939615;28;100749;-66
2023/01/27 00:10:35;;;;;;;;;;;;;;;10.40;46.21;101178.19;4937903;28;124611;-66
2023/01/27 00:15:45;;;;;;;;;;;;;;;10.39;46.23;101180.06;4956283;28;98083;-66
2023/01/27 00:18:11;;;;;;;;;;;;;;;10.38;46.57;101174.94;4949744;28;127913;-66
2023/01/27 00:26:15;;;;;;;;;;;;;;;10.38;46.60;101172.25;4946477;28;98007;-67
2023/01/27 00:28:42;;;;;;;;;;;;;;;10.35;46.22;101162.78;4956621;28;99447;-66
2023/01/27 00:33:54;;;;;;;;;;;;;;;10.30;46.49;101160.81;4954021;28;98053;-67
2023/01/27 00:36:20;;;;;;;;;;;;;;;10.29;46.22;101166.44;4957384;28;98139;-66
2023/01/27 00:38:46;;;;;;;;;;;;;;;10.27;46.64;101172.09;4966993;27;128511;-66
2023/01/27 00:41:18;;;;;;;;;;;;;;;10.25;46.35;101160.72;4933928;28;126850;-66
2023/01/27 00:43:48;;;;;;;;;;;;;;;10.24;46.50;101172.56;4958137;28;97925;-66
2023/01/27 00:46:14;;;;;;;;;;;;;;;10.22;46.49;101161.22;4958199;28;119641;-66
2023/01/27 00:48:40;;;;;;;;;;;;;;;10.23;46.66;101164.72;4969540;27;128443;-66
2023/01/27 00:51:06;;;;;;;;;;;;;;;10.22;46.40;101160.41;4969727;27;124010;-66
2023/01/27 00:53:32;;;;;;;;;;;;;;;10.21;46.43;101158.75;4953975;28;111693;-66
2023/01/27 00:55:58;;;;;;;;;;;;;;;10.19;46.86;101161.72;4935073;28;112250;-66
2023/01/27 00:58:25;;;;;;;;;;;;;;;10.19;46.81;101161.72;4965824;27;98460;-65
2023/01/27 01:00:53;;;;;;;;;;;;;;;10.18;46.20;101168.16;4937706;28;98124;-66
2023/01/27 01:03:19;;;;;;;;;;;;;;;10.18;46.43;101167.34;4970944;27;98138;-66
2023/01/27 01:05:45;;;;;;;;;;;;;;;10.17;46.19;101165.72;4952542;28;98281;-65
2023/01/27 01:08:11;;;;;;;;;;;;;;;10.17;46.88;101169.22;4941914;28;128418;-67
2023/01/27 01:10:38;;;;;;;;;;;;;;;10.16;46.78;101172.97;4958796;28;113763;-66
2023/01/27 01:13:06;;;;;;;;;;;;;;;10.17;46.79;101179.19;4959462;28;98082;-66
2023/01/27 01:15:35;;;;;;;;;;;;;;;10.16;46.15;101177.56;4957346;28;98257;-66
2023/01/27 01:18:04;;;;;;;;;;;;;;;10.17;46.62;101179.19;4960306;28;98583;-66
2023/01/27 01:20:30;;;;;;;;;;;;;;;10.15;46.45;101178.63;4943586;28;128021;-67
2023/01/27 01:22:56;;;;;;;;;;;;;;;10.15;46.01;101182.13;4953376;28;98345;-66
2023/01/27 01:25:22;;;;;;;;;;;;;;;10.15;46.83;101178.63;4950102;28;104265;-66
2023/01/27 01:27:48;;;;;;;;;;;;;;;10.14;46.79;101177.81;4955994;28;128003;-66
2023/01/27 01:30:14;;;;;;;;;;;;;;;10.15;46.55;101182.13;4957159;28;127766;-66
2023/01/27 01:32:40;;;;;;;;;;;;;;;10.14;46.83;101175.13;4940420;28;97959;-66
2023/01/27 01:35:06;;;;;;;;;;;;;;;10.15;46.40;101178.63;4956553;28;114032;-66
2023/01/27 01:37:32;;;;;;;;;;;;;;;10.15;46.09;101176.75;4960759;28;99460;-66
2023/01/27 01:39:58;;;;;;;;;;;;;;;10.14;46.73;101164.34;4965142;27;126482;-67
2023/01/27 01:42:24;;;;;;;;;;;;;;;10.14;46.18;101161.66;4953628;28;116955;-66
2023/01/27 01:44:53;;;;;;;;;;;;;;;10.13;46.64;101161.88;4941296;28;128202;-66
2023/01/27 01:47:19;;;;;;;;;;;;;;;10.13;46.34;101160.00;4955482;28;125790;-66
2023/01/27 01:49:45;;;;;;;;;;;;;;;10.14;46.74;101167.03;4964993;27;125287;-66
2023/01/27 01:52:14;;;;;;;;;;;;;;;10.13;46.18;101165.38;4954307;28;106207;-66
2023/01/27 01:54:46;;;;;;;;;;;;;;;10.13;46.43;101167.25;4950302;28;116094;-65
2023/01/27 01:57:24;;;;;;;;;;;;;;;10.13;46.10;101165.38;4952785;28;116430;-66
2023/01/27 01:59:53;;;;;;;;;;;;;;;10.13;46.48;101167.25;4939693;28;124765;-66
2023/01/27 02:02:20;;;;;;;;;;;;;;;10.14;46.42;101168.88;4951368;28;98207;-67
2023/01/27 02:05:17;;;;;;;;;;;;;;;10.13;46.57;101168.06;4954675;28;99421;-65
2023/01/27 02:07:45;;;;;;;;;;;;;;;10.13;46.48;101178.84;4955588;28;98230;-65
2023/01/27 02:10:11;;;;;;;;;;;;;;;10.12;46.57;101179.09;4957564;28;98097;-66
2023/01/27 02:12:37;;;;;;;;;;;;;;;10.12;46.79;101174.53;4968000;27;97988;-65
2023/01/27 02:15:04;;;;;;;;;;;;;;;10.12;46.18;101177.22;4952481;28;127360;-66
2023/01/27 02:17:30;;;;;;;;;;;;;;;10.13;46.83;101180.72;4938332;28;128434;-66
2023/01/27 02:19:59;;;;;;;;;;;;;;;10.13;46.65;101181.53;4918839;28;119580;-66
2023/01/27 02:22:46;;;;;;;;;;;;;;;10.14;46.35;101179.66;4947726;28;97931;-66
2023/01/27 02:25:33;;;;;;;;;;;;;;;10.12;46.44;101190.69;4955471;28;98568;-66
2023/01/27 02:28:03;;;;;;;;;;;;;;;10.13;46.11;101191.50;4956744;28;98228;-66
2023/01/27 02:30:29;;;;;;;;;;;;;;;10.12;46.75;101193.41;4948365;28;125658;-66
2023/01/27 02:32:55;;;;;;;;;;;;;;;10.12;46.79;101201.47;4948073;28;117634;-67
2023/01/27 02:35:28;;;;;;;;;;;;;;;10.12;46.16;101195.28;4934776;28;126449;-67
2023/01/27 02:37:54;;;;;;;;;;;;;;;10.12;46.34;101197.97;4967342;27;127453;-68
2023/01/27 02:40:20;;;;;;;;;;;;;;;10.11;46.34;101194.47;4933468;28;127772;-66
2023/01/27 02:42:45;;;;;;;;;;;;;;;10.11;46.37;101199.84;4936455;28;116596;-66
2023/01/27 02:45:11;;;;;;;;;;;;;;;10.11;46.34;101199.84;4934919;28;128428;-66
2023/01/27 02:47:37;;;;;;;;;;;;;;;10.11;46.28;101199.03;4952603;28;127472;-66
2023/01/27 02:50:03;;;;;;;;;;;;;;;10.10;46.38;101195.53;4954370;28;127481;-66
2023/01/27 02:52:29;;;;;;;;;;;;;;;10.11;46.68;101196.34;4950025;28;97996;-66
2023/01/27 02:54:55;;;;;;;;;;;;;;;10.11;46.19;101201.72;4951095;28;128629;-66
2023/01/27 02:57:21;;;;;;;;;;;;;;;10.10;46.59;101200.91;4936152;28;127134;-67
2023/01/27 02:59:47;;;;;;;;;;;;;;;10.11;46.45;101213.31;4953193;28;128038;-66
2023/01/27 03:02:13;;;;;;;;;;;;;;;10.10;46.25;101206.31;4952441;28;116740;-66
2023/01/27 03:04:39;;;;;;;;;;;;;;;10.10;46.43;101211.69;4920304;28;99559;-66
2023/01/27 03:07:05;;;;;;;;;;;;;;;10.12;45.99;101208.75;4940141;28;106121;-66
2023/01/27 03:09:31;;;;;;;;;;;;;;;10.10;46.20;101206.31;4957011;28;131105;-66
2023/01/27 03:20:11;;;;;;;;;;;;;;;10.10;46.61;101206.31;4952025;28;97965;-66
2023/01/27 03:22:37;;;;;;;;;;;;;;;10.08;45.95;101198.44;4955779;28;110811;-66
2023/01/27 03:25:03;;;;;;;;;;;;;;;10.08;46.19;101211.91;4937770;28;127573;-66
2023/01/27 03:27:29;;;;;;;;;;;;;;;10.08;46.30;101214.63;4943733;28;97978;-67
2023/01/27 03:29:55;;;;;;;;;;;;;;;10.08;46.70;101211.91;4953718;28;120130;-66
2023/01/27 03:32:25;;;;;;;;;;;;;;;10.09;46.20;101207.34;4964799;27;98021;-66
2023/01/27 03:34:51;;;;;;;;;;;;;;;10.09;46.76;101213.53;4952137;28;98327;-67
2023/01/27 03:48:19;;;;;;;;;;;;;;;10.14;46.86;101231.69;4936782;28;100023;-66
2023/01/27 03:50:51;;;;;;;;;;;;;;;10.21;46.04;101231.50;4933842;28;98625;-66
2023/01/27 03:53:18;;;;;;;;;;;;;;;10.26;46.15;101234.31;4934187;28;98106;-66
2023/01/27 03:55:45;;;;;;;;;;;;;;;10.31;46.21;101232.50;4952763;28;118628;-66
2023/01/27 03:58:18;;;;;;;;;;;;;;;10.35;46.61;101224.75;4951364;28;98044;-66
2023/01/27 04:00:55;;;;;;;;;;;;;;;10.40;46.75;101221.31;4953457;28;98267;-67
2023/01/27 04:08:56;;;;;;;;;;;;;;;10.48;46.75;101227.09;4947221;28;100176;-66
2023/01/27 04:14:07;;;;;;;;;;;;;;;10.51;46.44;101217.69;4945149;28;97951;-67
2023/01/27 04:16:35;;;;;;;;;;;;;;;10.51;46.65;101229.28;4937854;28;101628;-66
2023/01/27 04:19:01;;;;;;;;;;;;;;;10.51;46.25;101229.28;4940768;28;99911;-66
2023/01/27 04:21:28;;;;;;;;;;;;;;;10.52;46.81;101222.03;4967981;27;98052;-66
2023/01/27 04:23:54;;;;;;;;;;;;;;;10.52;46.88;101225.53;4953317;28;98199;-67
2023/01/27 04:26:20;;;;;;;;;;;;;;;10.52;46.55;101216.63;4951314;28;98049;-66
2023/01/27 04:28:46;;;;;;;;;;;;;;;10.52;46.51;101228.22;4928793;28;99796;-66
2023/01/27 04:31:13;;;;;;;;;;;;;;;10.52;46.30;101225.53;4952118;28;98134;-66
2023/01/27 04:33:39;;;;;;;;;;;;;;;10.52;46.65;101227.41;4954244;28;97801;-68
2023/01/27 04:36:05;;;;;;;;;;;;;;;10.53;46.42;101229.03;4940138;28;127321;-67
2023/01/27 04:38:31;;;;;;;;;;;;;;;10.52;46.50;101220.13;4955712;28;117014;-67
2023/01/27 04:40:57;;;;;;;;;;;;;;;10.52;46.14;101224.72;4954793;28;98213;-67
2023/01/27 04:43:23;;;;;;;;;;;;;;;10.53;46.36;101226.34;4951019;28;118282;-67
2023/01/27 04:45:49;;;;;;;;;;;;;;;10.53;46.19;101229.88;4956116;28;127444;-66
2023/01/27 04:48:15;;;;;;;;;;;;;;;10.53;46.34;101229.88;4953152;28;127574;-67
2023/01/27 04:50:41;;;;;;;;;;;;;;;10.54;46.25;101230.69;4935908;28;127445;-67
2023/01/27 04:53:07;;;;;;;;;;;;;;;10.53;46.26;101235.28;4958589;28;98584;-66
2023/01/27 04:55:33;;;;;;;;;;;;;;;10.53;46.80;101231.72;4927683;28;128812;-66
2023/01/27 04:57:59;;;;;;;;;;;;;;;10.54;46.61;101236.09;4957504;28;127994;-66
2023/01/27 05:00:25;;;;;;;;;;;;;;;10.53;46.81;101239.81;4925835;28;128842;-65
2023/01/27 05:02:51;;;;;;;;;;;;;;;10.53;46.61;101223.66;4967626;27;97940;-66
2023/01/27 05:05:16;;;;;;;;;;;;;;;10.52;46.20;101230.91;4937470;28;130100;-66
2023/01/27 05:07:42;;;;;;;;;;;;;;;10.52;46.76;101230.09;4955464;28;127740;-67
2023/01/27 05:10:09;;;;;;;;;;;;;;;10.51;46.20;101226.59;4941059;28;125460;-67
2023/01/27 05:12:35;;;;;;;;;;;;;;;10.51;46.86;101226.59;4954121;28;117188;-67
2023/01/27 05:15:01;;;;;;;;;;;;;;;10.51;46.43;101223.91;4953368;28;128020;-66
2023/01/27 05:17:30;;;;;;;;;;;;;;;10.51;46.55;101225.78;4949006;28;126648;-66
2023/01/27 05:19:56;;;;;;;;;;;;;;;10.51;46.59;101232.00;4953885;28;99692;-66
2023/01/27 05:22:22;;;;;;;;;;;;;;;10.50;46.78;101235.75;4956083;28;116613;-67
2023/01/27 05:24:48;;;;;;;;;;;;;;;10.48;46.30;101237.88;4952707;28;128682;-67
2023/01/27 05:27:15;;;;;;;;;;;;;;;10.50;46.40;101240.34;4947623;28;128443;-67
2023/01/27 05:29:40;;;;;;;;;;;;;;;10.49;46.67;101238.69;4953793;28;99231;-67
2023/01/27 05:32:06;;;;;;;;;;;;;;;10.47;46.48;101238.13;4952310;28;115607;-67
2023/01/27 05:34:32;;;;;;;;;;;;;;;10.47;46.74;101244.34;4952216;28;98403;-67
2023/01/27 05:36:58;;;;;;;;;;;;;;;10.47;46.25;101248.91;4925831;28;129218;-66
2023/01/27 05:39:24;;;;;;;;;;;;;;;10.46;46.79;101241.91;4935073;28;127971;-66
2023/01/27 05:41:50;;;;;;;;;;;;;;;10.46;46.42;101253.50;4958433;28;98168;-67
2023/01/27 05:44:16;;;;;;;;;;;;;;;10.46;46.83;101255.38;4967069;27;102322;-67
2023/01/27 05:46:42;;;;;;;;;;;;;;;10.45;46.81;101256.41;4965520;27;127011;-66
2023/01/27 05:49:08;;;;;;;;;;;;;;;10.43;46.50;101253.97;4919601;28;108400;-66
2023/01/27 05:51:40;;;;;;;;;;;;;;;10.41;46.78;101247.19;4945190;28;98205;-66
2023/01/27 05:54:06;;;;;;;;;;;;;;;10.39;46.35;101247.44;4966987;27;98833;-66
2023/01/27 05:56:32;;;;;;;;;;;;;;;10.37;46.77;101257.66;4939669;28;99704;-67
2023/01/27 05:58:58;;;;;;;;;;;;;;;10.35;46.31;101254.41;4935317;28;104105;-67
2023/01/27 06:01:31;;;;;;;;;;;;;;;10.34;46.42;101255.47;4063606;27;10000977;-66
2023/01/27 06:03:57;;;;;;;;;;;;;;;10.33;46.50;101259.19;4912497;28;98338;-66
2023/01/27 06:06:33;;;;;;;;;;;;;;;10.35;46.22;101253.59;4550381;28;10000114;-66
2023/01/27 06:08:59;;;;;;;;;;;;;;;10.34;46.30;101260.88;4742608;28;5106074;-67
2023/01/27 06:11:25;;;;;;;;;;;;;;;10.34;46.13;101262.75;4917930;28;128438;-66
2023/01/27 06:13:51;;;;;;;;;;;;;;;10.34;46.78;101260.88;4918405;28;127321;-67
2023/01/27 06:16:18;;;;;;;;;;;;;;;10.34;46.36;101262.75;4929210;28;117495;-66
2023/01/27 06:18:44;;;;;;;;;;;;;;;10.34;46.70;101263.56;4924597;28;98321;-66
2023/01/27 06:21:11;;;;;;;;;;;;;;;10.34;46.07;101270.81;4938954;28;97819;-67
2023/01/27 06:23:37;;;;;;;;;;;;;;;10.34;46.18;101279.72;4939222;28;110358;-66
2023/01/27 06:26:06;;;;;;;;;;;;;;;10.34;46.30;101279.72;4904682;28;111219;-67
2023/01/27 06:28:32;;;;;;;;;;;;;;;10.35;46.29;101267.88;4939674;28;97988;-66
2023/01/27 06:31:08;;;;;;;;;;;;;;;10.35;46.14;101275.97;4935641;28;128560;-66
2023/01/27 06:33:34;;;;;;;;;;;;;;;10.36;46.06;101282.97;4937458;28;106584;-66
2023/01/27 06:36:05;;;;;;;;;;;;;;;10.36;46.83;101282.16;4922977;28;98177;-66
2023/01/27 06:38:31;;;;;;;;;;;;;;;10.36;46.74;101279.47;4939852;28;97788;-66
2023/01/27 06:40:57;;;;;;;;;;;;;;;10.36;46.56;101285.66;4936202;28;127130;-66
2023/01/27 06:43:22;;;;;;;;;;;;;;;10.36;46.26;101282.16;4921025;28;128463;-66
2023/01/27 06:45:49;;;;;;;;;;;;;;;10.35;46.69;101297.53;4921121;28;124999;-67
2023/01/27 06:48:15;;;;;;;;;;;;;;;10.35;46.42;101292.13;4900702;28;98068;-66
2023/01/27 06:50:41;;;;;;;;;;;;;;;10.35;46.04;101294.00;4935439;28;128038;-67
2023/01/27 06:53:07;;;;;;;;;;;;;;;10.36;46.70;101295.63;4921965;28;128783;-66
2023/01/27 06:55:33;;;;;;;;;;;;;;;10.37;46.65;101292.69;4951650;28;127466;-66
2023/01/27 06:58:01;;;;;;;;;;;;;;;10.38;46.71;101290.84;4959558;28;98352;-67
2023/01/27 07:00:27;;;;;;;;;;;;;;;10.38;46.35;101299.72;4942454;28;101419;-66
2023/01/27 07:02:55;;;;;;;;;;;;;;;10.38;46.12;101298.91;4959375;28;109426;-66
2023/01/27 07:05:20;;;;;;;;;;;;;;;10.39;46.21;101297.84;4953136;28;120392;-66
2023/01/27 07:07:46;;;;;;;;;;;;;;;10.40;46.38;101296.78;4957633;28;116773;-66
2023/01/27 07:10:12;;;;;;;;;;;;;;;10.41;46.27;101298.41;4955956;28;126998;-67
2023/01/27 07:12:38;;;;;;;;;;;;;;;10.40;46.11;101291.38;4954040;28;128558;-66
2023/01/27 07:15:08;;;;;;;;;;;;;;;10.42;46.30;101298.19;4959164;28;101304;-66
2023/01/27 07:17:34;;;;;;;;;;;;;;;10.42;46.63;101303.56;4937685;28;99052;-67
2023/01/27 07:20:00;;;;;;;;;;;;;;;10.43;46.75;101301.69;4925099;28;98130;-67
2023/01/27 07:22:26;;;;;;;;;;;;;;;10.43;46.10;101302.50;4939244;28;99846;-67
2023/01/27 07:24:54;;;;;;;;;;;;;;;10.45;46.25;101308.47;4957494;28;109011;-66
2023/01/27 07:27:23;;;;;;;;;;;;;;;10.45;46.26;101311.16;4942302;28;98340;-66
2023/01/27 07:29:49;;;;;;;;;;;;;;;10.45;46.56;101300.38;4958441;28;99668;-66
2023/01/27 07:32:15;;;;;;;;;;;;;;;10.46;46.57;101309.28;4924987;28;97943;-66
2023/01/27 07:34:41;;;;;;;;;;;;;;;10.47;46.38;101306.34;4953456;28;127519;-67
2023/01/27 07:37:06;;;;;;;;;;;;;;;10.46;46.16;101302.00;4968755;27;117339;-66
2023/01/27 07:39:33;;;;;;;;;;;;;;;10.48;46.55;101310.66;4941860;28;128274;-66
2023/01/27 07:42:02;;;;;;;;;;;;;;;10.50;46.58;101310.44;4958257;28;98421;-66
2023/01/27 07:44:28;;;;;;;;;;;;;;;10.49;46.09;101309.63;4955296;28;98159;-67
2023/01/27 07:46:54;;;;;;;;;;;;;;;10.49;46.42;101320.41;4927351;28;116902;-66
2023/01/27 07:49:20;;;;;;;;;;;;;;;10.49;46.41;101314.16;4939889;28;98002;-66
2023/01/27 07:51:45;;;;;;;;;;;;;;;10.49;46.23;101314.16;4957764;28;128086;-67
2023/01/27 07:54:11;;;;;;;;;;;;;;;10.49;46.42;101320.41;4937258;28;129269;-67
2023/01/27 07:56:37;;;;;;;;;;;;;;;10.49;46.07;101323.09;4939594;28;114489;-66
2023/01/27 07:59:03;;;;;;;;;;;;;;;10.48;46.35;101332.22;4941464;28;98782;-66
2023/01/27 08:01:29;;;;;;;;;;;;;;;10.47;46.28;101332.47;4958352;28;128180;-66
2023/01/27 08:03:55;;;;;;;;;;;;;;;10.47;46.44;101338.69;4959363;28;100537;-67
2023/01/27 08:06:21;;;;;;;;;;;;;;;10.46;46.22;101344.31;4943569;28;106220;-66
2023/01/27 08:08:47;;;;;;;;;;;;;;;10.46;46.21;101338.94;4942121;28;126143;-67
2023/01/27 08:11:13;;;;;;;;;;;;;;;10.45;46.59;101348.06;4940320;28;115429;-67
2023/01/27 08:13:39;;;;;;;;;;;;;;;10.45;46.16;101340.81;4959958;28;122549;-67
2023/01/27 08:16:07;;;;;;;;;;;;;;;10.47;46.50;101352.16;4945848;28;103937;-67
2023/01/27 08:18:33;;;;;;;;;;;;;;;10.48;46.09;101344.88;4943796;28;98370;-66
2023/01/27 08:20:59;;;;;;;;;;;;;;;10.49;46.19;101357.28;4959460;28;98195;-66
2023/01/27 08:23:25;;;;;;;;;;;;;;;10.50;46.14;101350.84;4957689;28;98279;-67
2023/01/27 08:25:52;;;;;;;;;;;;;;;10.50;46.14;101356.25;4954089;28;116902;-66
2023/01/27 08:28:18;;;;;;;;;;;;;;;10.51;46.53;101360.56;4941168;28;122683;-67
2023/01/27 08:30:45;;;;;;;;;;;;;;;10.52;46.47;101359.50;4957743;28;98331;-66
2023/01/27 08:33:11;;;;;;;;;;;;;;;10.54;46.20;101362.78;4959932;28;107558;-67
2023/01/27 08:35:38;;;;;;;;;;;;;;;10.55;46.41;101359.84;4961496;28;98026;-67
2023/01/27 08:38:04;;;;;;;;;;;;;;;10.57;46.45;101359.56;4957779;28;98170;-66
2023/01/27 08:40:30;;;;;;;;;;;;;;;10.56;45.98;101364.16;4956291;28;124368;-67
2023/01/27 08:42:56;;;;;;;;;;;;;;;10.57;46.21;101364.97;4941371;28;127080;-66
2023/01/27 08:45:22;;;;;;;;;;;;;;;10.56;46.21;101366.84;4958139;28;115880;-67
2023/01/27 08:47:48;;;;;;;;;;;;;;;10.57;46.11;101365.81;4960016;28;98138;-67
2023/01/27 08:50:14;;;;;;;;;;;;;;;10.60;45.79;101372.56;4929091;28;99371;-67
2023/01/27 08:52:39;;;;;;;;;;;;;;;10.63;45.86;101371.28;4944418;28;128317;-66
2023/01/27 08:55:06;;;;;;;;;;;;;;;10.64;46.31;101371.03;4942791;28;117496;-66
2023/01/27 08:57:32;;;;;;;;;;;;;;;10.64;45.81;101373.72;4940733;28;98061;-67
2023/01/27 08:59:58;;;;;;;;;;;;;;;10.68;46.02;101369.47;4958222;28;97987;-67
2023/01/27 09:02:24;;;;;;;;;;;;;;;10.72;46.28;101373.31;4959770;28;126552;-70
2023/01/27 09:04:50;;;;;;;;;;;;;;;10.78;46.22;101375.03;4956649;28;115581;-66
2023/01/27 09:07:16;;;;;;;;;;;;;;;10.82;46.03;101373.47;4942610;28;127147;-66
2023/01/27 09:09:45;;;;;;;;;;;;;;;10.84;45.80;101378.59;4942449;28;121828;-67
2023/01/27 09:12:11;;;;;;;;;;;;;;;10.87;45.86;101382.69;4944173;28;98537;-67
2023/01/27 09:14:37;;;;;;;;;;;;;;;10.93;45.98;101385.22;4926176;28;116946;-67
2023/01/27 09:17:03;;;;;;;;;;;;;;;10.99;45.93;101378.84;4958974;28;128605;-66
2023/01/27 09:19:29;;;;;;;;;;;;;;;11.05;45.82;101382.44;4942428;28;128379;-67
2023/01/27 09:21:55;;;;;;;;;;;;;;;11.12;45.51;101380.38;4959328;28;127887;-66
2023/01/27 09:24:21;;;;;;;;;;;;;;;11.18;45.93;101373.97;4927328;28;98269;-67
2023/01/27 09:26:47;;;;;;;;;;;;;;;11.22;45.94;101380.50;4959328;28;128369;-67
2023/01/27 09:29:13;;;;;;;;;;;;;;;11.27;45.82;101377.06;4940908;28;98218;-67
2023/01/27 09:31:39;;;;;;;;;;;;;;;11.31;45.53;101386.28;4958922;28;126962;-67
2023/01/27 09:34:05;;;;;;;;;;;;;;;11.34;45.58;101379.56;4956631;28;115430;-67
2023/01/27 09:36:31;;;;;;;;;;;;;;;11.36;45.52;101374.72;4941358;28;127594;-67
2023/01/27 09:39:00;;;;;;;;;;;;;;;11.39;45.80;101383.16;4940534;28;122627;-67
2023/01/27 09:41:35;;;;;;;;;;;;;;;11.43;45.84;101378.06;4957158;28;125853;-67
2023/01/27 09:44:18;;;;;;;;;;;;;;;11.44;45.52;101379.72;4959235;28;99312;-67
2023/01/27 09:46:47;;;;;;;;;;;;;;;11.44;45.77;101377.03;4942983;28;125208;-66
2023/01/27 09:49:35;;;;;;;;;;;;;;;11.46;45.66;101374.88;4959311;28;98460;-67
2023/01/27 09:52:31;;;;;;;;;;;;;;;11.52;45.78;101381.97;4955755;28;122315;-66
2023/01/27 09:55:17;;;;;;;;;;;;;;;11.52;45.80;101382.78;4942226;28;97988;-67
2023/01/27 09:57:56;;;;;;;;;;;;;;;11.55;45.82;101381.44;4957984;28;122699;-67
2023/01/27 10:00:41;;;;;;;;;;;;;;;11.58;45.98;101375.56;4958669;28;98055;-67
2023/01/27 10:03:25;;;;;;;;;;;;;;;11.60;45.70;101369.91;4960142;28;98098;-67
2023/01/27 10:06:01;;;;;;;;;;;;;;;11.63;45.72;101375.63;4955784;28;97899;-67
2023/01/27 10:08:40;;;;;;;;;;;;;;;11.66;45.70;101369.72;4956487;28;116193;-68
2023/01/27 10:11:27;;;;;;;;;;;;;;;11.65;45.76;101372.66;4957185;28;98299;-67
2023/01/27 10:14:05;;;;;;;;;;;;;;;11.65;45.82;101387.00;4941512;28;97990;-68
2023/01/27 10:16:51;;;;;;;;;;;;;;;11.66;45.78;101374.28;4955467;28;99196;-67
2023/01/27 10:19:43;;;;;;;;;;;;;;;11.66;45.86;101382.41;4956431;28;98449;-67
2023/01/27 10:22:21;;;;;;;;;;;;;;;11.65;46.00;101381.59;4926180;28;114581;-66
2023/01/27 10:24:49;;;;;;;;;;;;;;;11.64;45.86;101387.25;4959386;28;97877;-67
2023/01/27 10:27:19;;;;;;;;;;;;;;;11.61;45.96;101388.56;4958792;28;98130;-66
2023/01/27 10:29:49;;;;;;;;;;;;;;;11.59;45.96;101387.97;4943308;28;98851;-66
2023/01/27 10:32:22;;;;;;;;;;;;;;;11.58;46.04;101394.47;4941880;28;125964;-67
2023/01/27 10:35:15;;;;;;;;;;;;;;;11.57;45.94;101390.13;4943767;28;98037;-67
2023/01/27 10:37:51;;;;;;;;;;;;;;;11.56;46.09;101399.31;4945088;28;106062;-66
2023/01/27 10:40:17;;;;;;;;;;;;;;;11.54;45.75;101401.44;4957146;28;120883;-67
2023/01/27 10:43:01;;;;;;;;;;;;;;;11.51;45.84;101402.75;4959042;28;98767;-68
2023/01/27 10:45:39;;;;;;;;;;;;;;;11.51;46.19;101405.47;4940698;28;98164;-67
2023/01/27 10:48:30;;;;;;;;;;;;;;;11.50;46.12;101398.41;4957957;28;98295;-67
2023/01/27 10:51:07;;;;;;;;;;;;;;;11.52;45.94;101404.38;4957996;28;98159;-67
2023/01/27 10:54:11;;;;;;;;;;;;;;;11.53;46.01;101399.81;4960399;28;98792;-67
2023/01/27 10:57:05;;;;;;;;;;;;;;;11.54;45.79;101396.03;4957937;28;122249;-67
2023/01/27 10:59:43;;;;;;;;;;;;;;;11.57;45.99;101405.53;4940502;28;112453;-67
2023/01/27 11:02:23;;;;;;;;;;;;;;;11.57;45.90;101397.41;4941876;28;121186;-67
2023/01/27 11:04:53;;;;;;;;;;;;;;;11.60;45.99;101400.44;4943443;28;97960;-67
2023/01/27 11:07:20;;;;;;;;;;;;;;;11.62;45.75;101408.28;4942650;28;98592;-67
2023/01/27 11:10:02;;;;;;;;;;;;;;;11.64;45.71;101412.38;4943031;28;98088;-66
2023/01/27 11:12:31;;;;;;;;;;;;;;;11.65;45.85;101407.78;4941859;28;98321;-66
2023/01/27 11:14:58;;;;;;;;;;;;;;;11.67;45.77;101413.72;4940875;28;114333;-66
2023/01/27 11:17:47;;;;;;;;;;;;;;;11.70;45.92;101407.84;4926378;28;97950;-66
2023/01/27 11:20:28;;;;;;;;;;;;;;;11.68;45.83;101413.50;4957785;28;100094;-66
2023/01/27 11:23:14;;;;;;;;;;;;;;;11.67;45.74;101416.44;4958671;28;98323;-66
2023/01/27 11:25:46;;;;;;;;;;;;;;;11.67;45.60;101411.03;4959546;28;98049;-65
2023/01/27 11:28:40;;;;;;;;;;;;;;;11.67;46.02;101409.16;4954869;28;97883;-65
2023/01/27 11:31:45;;;;;;;;;;;;;;;11.71;46.04;101412.16;4955982;28;98035;-66
2023/01/27 11:34:32;;;;;;;;;;;;;;;11.70;45.91;101400.53;4943423;28;98253;-66
2023/01/27 11:36:59;;;;;;;;;;;;;;;11.66;45.94;101401.31;4958804;28;98226;-66
2023/01/27 11:39:25;;;;;;;;;;;;;;;11.64;45.93;101400.75;4941850;28;98990;-65
2023/01/27 11:41:53;;;;;;;;;;;;;;;11.64;45.95;101392.66;4941519;28;99131;-65
2023/01/27 11:44:20;;;;;;;;;;;;;;;11.67;45.83;101384.03;4954915;28;98228;-65
2023/01/27 11:46:46;;;;;;;;;;;;;;;11.79;45.70;101382.84;4938270;28;121827;-66
2023/01/27 11:49:18;;;;;;;;;;;;;;;11.83;45.63;101376.91;4956722;28;123656;-66
2023/01/27 11:51:44;;;;;;;;;;;;;;;11.89;45.78;101371.34;4958051;28;98242;-66
2023/01/27 11:54:34;;;;;;;;;;;;;;;11.97;45.55;101362.78;4954478;28;129094;-65
2023/01/27 11:57:00;;;;;;;;;;;;;;;12.13;45.56;101363.75;4943046;28;100262;-66
2023/01/27 11:59:34;;;;;;;;;;;;;;;12.31;45.23;101365.28;4940614;28;129683;-67
2023/01/27 12:02:33;;;;;;;;;;;;;;;12.58;45.10;101353.59;4957949;28;112942;-66
2023/01/27 12:05:11;;;;;;;;;;;;;;;12.88;44.75;101355.69;4955185;28;97947;-67
2023/01/27 12:08:06;;;;;;;;;;;;;;;13.05;45.00;101367.16;4940629;28;98582;-66
2023/01/27 12:10:34;;;;;;;;;;;;;;;13.05;45.06;101353.63;4944910;28;128029;-66
2023/01/27 12:13:08;;;;;;;;;;;;;;;12.94;45.23;101360.06;4940130;28;98254;-66
2023/01/27 12:15:34;;;;;;;;;;;;;;;12.87;45.19;101359.47;4957118;28;98409;-67
2023/01/27 12:18:03;;;;;;;;;;;;;;;12.80;45.46;101354.28;4939462;28;98754;-66
2023/01/27 12:20:49;;;;;;;;;;;;;;;12.72;45.47;101352.88;4970424;28;98232;-66
2023/01/27 12:23:19;;;;;;;;;;;;;;;12.66;45.52;101355.81;4958416;28;98083;-66
2023/01/27 12:25:48;;;;;;;;;;;;;;;12.62;45.47;101346.59;4925103;28;100131;-66
2023/01/27 12:28:35;;;;;;;;;;;;;;;12.62;45.47;101357.41;4923424;28;102568;-66
2023/01/27 12:31:12;;;;;;;;;;;;;;;12.59;45.59;101350.63;4953094;28;97983;-66
2023/01/27 12:33:41;;;;;;;;;;;;;;;12.58;45.46;101348.19;4940669;28;117827;-67
2023/01/27 12:36:15;;;;;;;;;;;;;;;12.59;45.51;101347.13;4939800;28;122440;-66
2023/01/27 12:38:55;;;;;;;;;;;;;;;12.55;45.47;101351.41;4958600;28;99616;-66
2023/01/27 12:41:28;;;;;;;;;;;;;;;12.53;45.68;101347.06;4940717;28;124805;-66
2023/01/27 12:44:06;;;;;;;;;;;;;;;12.53;45.70;101343.53;4941934;28;113109;-66
2023/01/27 12:46:32;;;;;;;;;;;;;;;12.51;45.64;101341.09;4960584;28;117823;-66
2023/01/27 12:49:13;;;;;;;;;;;;;;;12.55;45.56;101340.59;4958465;28;125204;-66
2023/01/27 12:51:47;;;;;;;;;;;;;;;12.53;45.53;101338.13;4944302;28;98182;-66
2023/01/27 12:54:15;;;;;;;;;;;;;;;12.63;45.35;101340.91;4944837;28;97942;-66
2023/01/27 12:56:41;;;;;;;;;;;;;;;12.62;45.50;101333.06;4963015;28;98026;-66
2023/01/27 12:59:12;;;;;;;;;;;;;;;12.55;45.66;101333.28;4958248;28;128501;-66
2023/01/27 13:01:40;;;;;;;;;;;;;;;12.49;45.67;101339.72;4942645;28;98115;-66
2023/01/27 13:04:26;;;;;;;;;;;;;;;12.44;45.67;101337.78;4943463;28;98421;-66
2023/01/27 13:07:02;;;;;;;;;;;;;;;12.40;45.85;101336.69;4959888;28;105177;-66
2023/01/27 13:09:33;;;;;;;;;;;;;;;12.38;45.71;101344.25;4959015;28;111087;-66
2023/01/27 13:12:27;;;;;;;;;;;;;;;12.36;45.71;101337.47;4959019;28;98021;-66
2023/01/27 13:15:07;;;;;;;;;;;;;;;12.28;46.01;101350.38;4959798;28;98216;-66
2023/01/27 13:17:43;;;;;;;;;;;;;;;12.23;46.04;101353.03;4945132;27;99473;-66
2023/01/27 13:20:17;;;;;;;;;;;;;;;12.21;45.99;101346.25;4958243;28;98263;-66
2023/01/27 13:22:50;;;;;;;;;;;;;;;12.16;46.00;101346.22;4957935;28;98229;-66